• Join FlightAware (Why Join?)
  • Login
  • US Flag 
08:12PM EST


 

Airport Tracker/Info


-or-


 

Live Flight TrackerFlight Track Log ✈ NKS216 ✈ 20-Jun-2013 ✈ KLAX - KIAH

Flight Track Log - Related Links

Times and Time Zones

All times are in EDT time to prevent confusion due to time zone crossing. See the NKS216 flight status page for this flight to view local times or setup timezone preferences in your user account.

Time Position Orientation Groundspeed Altitude Reporting Facility
EDT Latitude Longitude Course Direction KTS MPH feet Rate Location/Type
05:30AM 32.4240 -117.8220 73° East 2 2  Level FlightAware
05:33AM 32.4250 -117.8220 360° North 20 23 120 Level FlightAware
05:33AM 32.4500 -117.8340 338° Northwest 2 2 300 Level FlightAware
05:34AM 32.4500 -117.8350 270° West 28 32 360 Level FlightAware
05:34AM 32.4500 -117.8380 270° West 28 32 540 Level FlightAware
05:35AM 33.9460 -118.4380 342° North 166 191 700 900 Climbing FlightAware
05:36AM 33.9460 -118.4460 270° West 164 189 1,100 2,460 Climbing FlightAware
05:36AM 33.8990 -118.4990 223° Southwest 248 285 3,000 2,880 Climbing FlightAware
05:37AM 33.8650 -118.5020 184° South 280 322 4,000 3,180 Climbing FlightAware
05:37AM 33.8330 -118.5070 187° South 268 308 5,800 3,840 Climbing FlightAware
05:37AM 33.7980 -118.5110 185° South 277 319 7,400 2,880 Climbing FlightAware
05:38AM 33.7560 -118.5150 185° South 296 341 8,700 2,580 Climbing FlightAware
05:39AM 33.6990 -118.5020 169° South 322 371 10,600 2,340 Climbing FlightAware
05:39AM 33.6860 -118.4840 131° Southeast 340 391 10,900 1,260 Climbing FlightAware
05:39AM 33.6760 -118.4570 114° Southeast 358 412 11,200 1,440 Climbing FlightAware
05:40AM 33.6540 -118.3770 108° East 392 451 12,200 -180 Climbing FlightAware
05:41AM 33.6830 -118.4780 289° West 348 400 11,000 2,040 Descending FlightAware
05:41AM 33.6450 -118.2050 99° East 407 468 15,200 5,340 Climbing FlightAware
05:42AM 33.6450 -118.1030 90° East 412 474 16,900 2,100 Climbing FlightAware
05:43AM 33.6370 -117.9940 95° East 427 491 18,200 1,680 Climbing FlightAware
05:43AM 33.6290 -117.8950 96° East 440 506 19,400 1,680 Climbing FlightAware
05:44AM 33.6230 -117.7970 94° East 449 517 20,500 1,560 Climbing FlightAware
05:45AM 33.6150 -117.6890 95° East 458 527 21,600 1,500 Climbing FlightAware
05:45AM 33.6080 -117.5830 95° East 467 537 22,600 1,500 Climbing FlightAware
05:46AM 33.6000 -117.4690 95° East 472 543 23,800 1,380 Climbing FlightAware
05:47AM 33.5920 -117.3650 95° East 482 555 24,600 1,200 Climbing FlightAware
05:48AM 33.5830 -117.2440 95° East 492 566 25,500 1,260 Climbing FlightAware
05:48AM 33.5750 -117.1370 95° East 498 573 26,400 1,200 Climbing FlightAware
05:49AM 33.5690 -117.0590 95° East 503 579 26,900 1,200 Climbing FlightAware
05:49AM 33.5600 -116.9350 95° East 510 587 27,900 1,200 Climbing FlightAware
05:50AM 33.5480 -116.7740 95° East 520 598 28,900 1,200 Climbing FlightAware
05:51AM 33.5390 -116.6600 95° East 518 596 29,900 1,260 Climbing FlightAware
05:52AM 33.5290 -116.5340 95° East 523 602 30,700 1,320 Climbing FlightAware
05:52AM 33.5190 -116.4120 96° East 519 597 31,800 1,380 Climbing FlightAware
05:53AM 33.5100 -116.3030 96° East 522 601 32,600 1,260 Climbing FlightAware
05:54AM 33.5000 -116.1760 95° East 521 600 33,600 1,260 Climbing FlightAware
05:55AM 33.4900 -116.0530 96° East 520 598 34,500 960 Climbing FlightAware
05:55AM 33.4830 -115.9820 97° East 521 600 34,900 1,200 Climbing FlightAware
05:56AM 33.4690 -115.8150 96° East 514 592 36,200 1,380 Climbing FlightAware
05:57AM 33.4600 -115.7050 96° East 512 589 36,900 540 Climbing FlightAware
05:57AM 33.4500 -115.5900 96° East 509 586 37,000 60 Climbing FlightAware
05:58AM 33.4410 -115.4850 96° East 509 586 37,000  Level FlightAware
05:59AM 33.4270 -115.3270 96° East 509 586 37,000 -60 Level FlightAware
06:01AM 33.4150 -115.2000 96° East 508 585 36,900 -60 Descending FlightAware
06:01AM 33.4070 -115.1120 96° East 508 585 36,900  Level FlightAware
06:02AM 33.3970 -114.9980 96° East 508 585 36,900  Level FlightAware
06:03AM 33.3900 -114.9100 95° East 508 585 36,900  Level FlightAware
06:03AM 33.3800 -114.8000 96° East 508 585 36,900  Level FlightAware
06:04AM 33.3720 -114.7120 96° East 508 585 36,900  Level FlightAware
06:05AM 33.3620 -114.5950 96° East 508 585 36,900 60 Level FlightAware
06:06AM 33.3250 -114.2430 97° East 514 592 37,000  Climbing FlightAware
06:06AM 33.3090 -114.0860 97° East 515 593 36,900  Descending FlightAware
06:07AM 33.2960 -113.9560 97° East 514 592 37,000 60 Climbing FlightAware
06:08AM 33.2850 -113.8430 97° East 515 593 37,000  Level FlightAware
06:08AM 33.2730 -113.7300 97° East 515 593 37,000  Level FlightAware
06:09AM 33.2670 -113.6700 97° East 514 592 37,000  Level FlightAware
06:10AM 33.2500 -113.5050 97° East 514 592 37,000  Level FlightAware
06:11AM 33.2320 -113.3320 97° East 515 593 37,000  Level FlightAware
06:12AM 33.2100 -113.1270 97° East 518 596 37,000  Level FlightAware
06:13AM 33.1980 -113.0170 97° East 518 596 37,000  Level FlightAware
06:13AM 33.1840 -112.8890 97° East 518 596 37,000  Level FlightAware
06:14AM 33.1710 -112.7700 97° East 518 596 37,000  Level FlightAware
06:15AM 33.1580 -112.6530 98° East 518 596 37,000  Level FlightAware
06:15AM 33.1440 -112.5270 98° East 517 595 37,000  Level FlightAware
06:16AM 33.1300 -112.4090 98° East 516 594 37,000  Level FlightAware
06:17AM 33.1190 -112.3080 97° East 516 594 37,000  Level FlightAware
06:17AM 33.1040 -112.1800 98° East 516 594 37,000  Level FlightAware
06:18AM 33.0910 -112.0650 98° East 516 594 37,000  Level FlightAware
06:19AM 33.0770 -111.9520 98° East 518 596 37,000  Level FlightAware
06:20AM 33.0620 -111.8220 98° East 517 595 37,000  Level FlightAware
06:20AM 33.0460 -111.6880 98° East 518 596 37,000  Level FlightAware
06:21AM 33.0290 -111.5460 98° East 517 595 37,000  Level FlightAware
06:22AM 33.0100 -111.3910 98° East 516 594 37,000  Level FlightAware
06:23AM 32.9960 -111.2730 98° East 514 592 37,000  Level FlightAware
06:24AM 32.9820 -111.1650 99° East 513 590 37,000  Level FlightAware
06:24AM 32.9670 -111.0420 98° East 512 589 37,000  Level FlightAware
06:25AM 32.9580 -110.9650 98° East 511 588 37,000  Level FlightAware
06:26AM 32.9400 -110.8250 99° East 510 587 37,000  Level FlightAware
06:26AM 32.9250 -110.7090 99° East 510 587 37,000  Level FlightAware
06:27AM 32.9090 -110.5870 99° East 509 586 37,000  Level FlightAware
06:28AM 32.8950 -110.4740 98° East 508 585 37,000 -120 Level FlightAware
06:28AM 32.8800 -110.3620 99° East 508 585 36,900  Descending FlightAware
06:29AM 32.8650 -110.2420 98° East 509 586 37,000 60 Climbing FlightAware
06:30AM 32.8500 -110.1300 99° East 508 585 37,000  Level FlightAware
06:30AM 32.8340 -110.0140 99° East 507 583 37,000  Level FlightAware
06:31AM 32.8190 -109.8990 99° East 507 583 37,000  Level FlightAware
06:32AM 32.8030 -109.7780 99° East 506 582 37,000  Level FlightAware
06:33AM 32.7870 -109.6610 99° East 507 583 37,000  Level FlightAware
06:33AM 32.7720 -109.5540 99° East 506 582 37,000  Level FlightAware
06:34AM 32.7560 -109.4380 99° East 506 582 37,000  Level FlightAware
06:35AM 32.7390 -109.3190 100° East 506 582 37,000  Level FlightAware
06:35AM 32.7230 -109.2020 99° East 506 582 37,000  Level FlightAware
06:36AM 32.7030 -109.0610 100° East 504 580 37,000  Level FlightAware
06:37AM 32.6870 -108.9460 99° East 505 581 37,000  Level FlightAware
06:38AM 32.6680 -108.8190 100° East 506 582 37,000  Level FlightAware
06:38AM 32.6530 -108.7110 99° East 507 583 37,000  Level FlightAware
06:39AM 32.6350 -108.5910 100° East 506 582 37,000  Level FlightAware
06:40AM 32.6190 -108.4800 100° East 506 582 37,000  Level FlightAware
06:40AM 32.6020 -108.3620 100° East 505 581 37,000 -120 Level FlightAware
06:41AM 32.5860 -108.2570 100° East 505 581 36,900 -120 Descending FlightAware
06:42AM 32.5680 -108.1300 100° East 505 581 36,900  Level FlightAware
06:43AM 32.5530 -108.0180 99° East 505 581 36,900  Level FlightAware
06:47AM 32.4290 -107.2240 100° East 502 578 37,000  Climbing FlightAware
06:49AM 32.4030 -107.0540 100° East 502 578 37,000  Level FlightAware
06:50AM 32.3740 -106.8810 101° East 501 577 37,000  Level FlightAware
06:50AM 32.3650 -106.8250 101° East 499 574 37,000  Level FlightAware
06:51AM 32.3410 -106.6780 101° East 497 572 37,000  Level FlightAware
06:52AM 32.3210 -106.5560 101° East 495 570 37,000  Level FlightAware
06:52AM 32.3040 -106.4510 101° East 493 567 37,000 -120 Level FlightAware
06:53AM 32.2870 -106.3470 101° East 492 566 36,900  Descending FlightAware
06:54AM 32.2680 -106.2300 101° East 492 566 37,000  Climbing FlightAware
06:54AM 32.2500 -106.1200 101° East 491 565 36,900  Descending FlightAware
06:55AM 32.2320 -106.0120 101° East 488 562 37,000 60 Climbing FlightAware
06:56AM 32.2180 -105.9260 101° East 488 562 37,000  Level FlightAware
06:57AM 32.2000 -105.8190 101° East 488 562 37,000  Level FlightAware
06:57AM 32.1870 -105.7390 101° East 488 562 37,000  Level FlightAware
06:58AM 32.1690 -105.6270 101° East 488 562 37,000  Level FlightAware
06:59AM 32.1550 -105.5470 102° East 488 562 37,000  Level FlightAware
06:59AM 32.1380 -105.4400 101° East 488 562 37,000  Level FlightAware
07:00AM 32.1240 -105.3560 101° East 488 562 37,000  Level FlightAware
07:01AM 32.1100 -105.2740 101° East 488 562 37,000  Level FlightAware
07:01AM 32.0920 -105.1650 101° East 488 562 37,000  Level FlightAware
07:02AM 32.0790 -105.0820 100° East 488 562 37,000  Level FlightAware
07:03AM 32.0210 -104.7850 103° East 485 558 37,000  Level FlightAware
07:04AM 32.0070 -104.7040 101° East 485 558 37,000 -120 Level FlightAware
07:05AM 31.9800 -104.5600 102° East 485 558 36,900  Descending FlightAware
07:05AM 31.9630 -104.4670 102° East 485 558 37,000 60 Climbing FlightAware
07:06AM 31.9370 -104.3230 102° East 485 558 37,000  Level FlightAware
07:07AM 31.9170 -104.2150 102° East 485 558 37,000  Level FlightAware
07:07AM 31.9030 -104.1340 101° East 485 558 37,000  Level FlightAware
07:08AM 31.8830 -104.0280 103° East 485 558 37,000  Level FlightAware
07:09AM 31.8690 -103.9490 102° East 485 558 37,000  Level FlightAware
07:10AM 31.8500 -103.8440 102° East 485 558 37,000  Level FlightAware
07:11AM 31.8150 -103.6480 102° East 485 558 37,000  Level FlightAware
07:12AM 31.7960 -103.5430 102° East 485 558 37,000  Level FlightAware
07:13AM 31.7810 -103.4640 103° East 485 558 37,000  Level FlightAware
07:13AM 31.7620 -103.3540 101° East 485 558 37,000  Level FlightAware
07:14AM 31.7470 -103.2750 103° East 485 558 37,000  Level FlightAware
07:15AM 31.7170 -103.1090 102° East 485 558 37,000 -60 Level FlightAware
07:17AM 31.6250 -102.6740 104° East 483 556 36,900 -60 Descending FlightAware
07:17AM 31.6040 -102.5700 103° East 483 556 36,900  Level FlightAware
07:18AM 31.5780 -102.4380 103° East 481 554 36,900 60 Level FlightAware
07:19AM 31.5540 -102.3150 103° East 479 551 37,000  Climbing FlightAware
07:20AM 31.5320 -102.2060 103° East 480 552 36,900 -60 Descending FlightAware
07:21AM 31.5220 -102.1550 103° East 481 554 36,900  Level FlightAware
07:22AM 31.4740 -101.9200 103° East 482 555 37,000 60 Climbing FlightAware
07:22AM 31.4540 -101.8200 103° East 482 555 37,000  Level FlightAware
07:23AM 31.4300 -101.7040 104° East 480 552 37,000  Level FlightAware
07:24AM 31.4120 -101.6120 103° East 481 554 37,000  Level FlightAware
07:24AM 31.3870 -101.4950 104° East 478 550 37,000  Level FlightAware
07:25AM 31.3660 -101.3920 103° East 476 548 37,000 -120 Level FlightAware
07:26AM 31.3440 -101.2860 104° East 476 548 36,900 -120 Descending FlightAware
07:26AM 31.3220 -101.1810 104° East 477 549 36,900  Level FlightAware
07:27AM 31.3010 -101.0820 104° East 480 552 36,900 60 Level FlightAware
07:28AM 31.2780 -100.9690 103° East 484 557 37,000 60 Climbing FlightAware
07:29AM 31.2550 -100.8640 104° East 485 558 37,000  Level FlightAware
07:29AM 31.2330 -100.7600 104° East 485 558 37,000  Level FlightAware
07:30AM 31.2160 -100.6780 104° East 485 558 37,000  Level FlightAware
07:31AM 31.2090 -100.6470 105° East 485 558 37,000  Level FlightAware
07:32AM 31.1430 -100.3410 104° East 488 562 37,000  Level FlightAware
07:33AM 31.1200 -100.2310 104° East 490 564 37,000  Level FlightAware
07:33AM 31.1000 -100.1430 105° East 489 563 37,000  Level FlightAware
07:34AM 31.0730 -100.0200 104° East 487 560 37,000  Level FlightAware
07:35AM 31.0500 -99.9140 104° East 486 559 37,000  Level FlightAware
07:35AM 31.0337 -99.8090 100° East 485 558 37,000  Level FlightAware ADS-B
07:36AM 31.0290 -99.6980 93° East 481 554 37,000  Level FlightAware
07:37AM 31.0234 -99.5681 93° East 480 552 37,000 -120 Level FlightAware ADS-B
07:38AM 31.0190 -99.4840 93° East 478 550 36,900 -120 Descending FlightAware
07:38AM 31.0140 -99.3680 93° East 478 550 36,900  Level FlightAware
07:39AM 31.0090 -99.2700 93° East 479 551 36,900 60 Level FlightAware
07:40AM 31.0040 -99.1560 93° East 480 552 37,000 60 Climbing FlightAware
07:40AM 30.9980 -99.0430 94° East 481 554 37,000  Level FlightAware
07:41AM 30.9920 -98.9340 94° East 481 554 37,000  Level FlightAware
07:42AM 30.9870 -98.8350 93° East 480 552 37,000  Level FlightAware
07:42AM 30.9810 -98.7200 93° East 479 551 37,000  Level FlightAware
07:43AM 30.9750 -98.6050 93° East 479 551 37,000  Level FlightAware
07:44AM 30.9700 -98.5080 93° East 477 549 37,000  Level FlightAware
07:45AM 30.9640 -98.4010 94° East 474 545 37,000 -120 Level FlightAware
07:45AM 30.9572 -98.2829 94° East 475 547 36,900 -120 Descending FlightAware ADS-B
07:46AM 30.9508 -98.1697 94° East 476 548 36,900 60 Level FlightAware ADS-B
07:47AM 30.9460 -98.0887 94° East 476 548 37,000 60 Climbing FlightAware ADS-B
07:47AM 30.9415 -98.0106 94° East 478 550 37,000  Level FlightAware ADS-B
07:48AM 30.9369 -97.9312 94° East 479 551 37,000  Level FlightAware ADS-B
07:48AM 30.9322 -97.8534 94° East 478 550 37,000  Level FlightAware ADS-B
07:49AM 30.9276 -97.7763 94° East 476 548 37,000  Level FlightAware ADS-B
07:49AM 30.9229 -97.6988 94° East 476 548 37,000 -540 Level FlightAware ADS-B
07:50AM 30.9180 -97.6201 94° East 476 548 36,500 -1,020 Descending FlightAware ADS-B
07:50AM 30.9132 -97.5433 94° East 473 544 36,000 -1,020 Descending FlightAware ADS-B
07:51AM 30.9085 -97.4668 94° East 475 547 35,500 -1,020 Descending FlightAware ADS-B
07:51AM 30.9037 -97.3897 94° East 481 554 35,000 -1,020 Descending FlightAware ADS-B
07:52AM 30.8990 -97.3110 94° East 489 563 34,500 -1,020 Descending FlightAware ADS-B
07:52AM 30.8939 -97.2321 94° East 492 566 34,000 -1,020 Descending FlightAware ADS-B
07:53AM 30.8887 -97.1530 94° East 486 559 33,500 -1,020 Descending FlightAware ADS-B
07:53AM 30.8830 -97.0716 95° East 484 557 33,000 -1,020 Descending FlightAware ADS-B
07:54AM 30.8778 -96.9917 94° East 482 555 32,500 -960 Descending FlightAware ADS-B
07:54AM 30.8724 -96.9090 94° East 485 558 32,000 -1,020 Descending FlightAware ADS-B
07:55AM 30.8671 -96.8300 94° East 490 564 31,500 -1,140 Descending FlightAware ADS-B
07:55AM 30.8615 -96.7510 95° East 494 568 30,900 -1,620 Descending FlightAware ADS-B
07:56AM 30.8560 -96.6705 95° East 492 566 29,900 -2,640 Descending FlightAware ADS-B
07:56AM 30.8503 -96.5883 95° East 494 568 28,200 -2,520 Descending FlightAware ADS-B
07:57AM 30.8397 -96.4356 95° East 443 510 26,100 -2,520 Descending FlightAware ADS-B
07:58AM 30.8348 -96.3643 95° East 427 491 24,400 -3,420 Descending FlightAware ADS-B
07:58AM 30.8272 -96.2833 100° East 407 468 22,300 -3,600 Descending FlightAware ADS-B
07:59AM 30.8226 -96.2675 109° East 406 467 21,800 -4,020 Descending FlightAware ADS-B
07:59AM 30.8190 -96.2587 115° Southeast 405 466 21,500 -3,720 Descending FlightAware ADS-B
07:59AM 30.8111 -96.2436 121° Southeast 402 463 21,000 -3,240 Descending FlightAware ADS-B
07:59AM 30.8040 -96.2331 128° Southeast 398 458 20,700 -3,300 Descending FlightAware ADS-B
07:59AM 30.7972 -96.2248 134° Southeast 394 453 20,400 -3,480 Descending FlightAware ADS-B
07:59AM 30.7570 -96.1825 138° Southeast 384 442 18,700 -3,300 Descending FlightAware ADS-B
08:00AM 30.7175 -96.1404 137° Southeast 384 442 17,100 -3,120 Descending FlightAware ADS-B
08:01AM 30.6410 -96.0599 138° Southeast 368 423 14,000 -2,820 Descending FlightAware ADS-B
08:01AM 30.6018 -96.0185 138° Southeast 362 417 12,900 -1,080 Descending FlightAware ADS-B
08:03AM 30.4901 -95.9009 138° Southeast 332 382 11,900 -540 Descending FlightAware ADS-B
08:03AM 30.4567 -95.8660 138° Southeast 302 348 11,900 -720 Level FlightAware ADS-B
08:04AM 30.4258 -95.8334 138° Southeast 296 341 11,200 -1,500 Descending FlightAware ADS-B
08:06AM 30.3341 -95.7371 138° Southeast 286 329 8,900 -1,560 Descending FlightAware ADS-B
08:06AM 30.3044 -95.7059 138° Southeast 287 330 8,100 -1,200 Descending FlightAware ADS-B
08:07AM 30.2309 -95.6289 138° Southeast 278 320 6,800 -600 Descending FlightAware ADS-B
08:08AM 30.1865 -95.5828 138° Southeast 278 320 6,900  Climbing FlightAware ADS-B
08:09AM 30.1246 -95.5188 138° Southeast 277 319 6,900  Level FlightAware ADS-B
08:09AM 30.1184 -95.5121 137° Southeast 277 319 6,900  Level FlightAware ADS-B
08:09AM 30.1149 -95.5076 132° Southeast 278 320 6,900  Level FlightAware ADS-B
08:09AM 30.1093 -95.4973 118° Southeast 280 322 6,900  Level FlightAware ADS-B
08:10AM 30.1059 -95.4821 100° East 283 326 6,900  Level FlightAware ADS-B
08:10AM 30.1064 -95.4132 90° East 283 326 6,900  Level FlightAware ADS-B
08:11AM 30.1064 -95.3671 90° East 283 326 6,900  Level FlightAware ADS-B
08:11AM 30.1065 -95.3441 90° East 283 326 6,900  Level FlightAware ADS-B
08:11AM 30.1066 -95.3157 90° East 282 325 6,900  Level FlightAware ADS-B
08:12AM 30.1066 -95.2931 90° East 282 325 6,900  Level FlightAware ADS-B
08:12AM 30.1066 -95.2677 90° East 283 326 6,900  Level FlightAware ADS-B
08:12AM 30.1066 -95.2484 90° East 283 326 6,900  Level FlightAware ADS-B
08:12AM 30.1065 -95.2248 90° East 283 326 6,900  Level FlightAware ADS-B
08:13AM 30.1065 -95.2017 90° East 283 326 6,900  Level FlightAware ADS-B
08:13AM 30.1065 -95.1785 90° East 283 326 6,900 -240 Level FlightAware ADS-B
08:13AM 30.1064 -95.1564 90° East 272 313 6,800  Descending FlightAware ADS-B
08:14AM 30.1063 -95.1172 90° East 244 281 6,900 60 Climbing FlightAware ADS-B
08:14AM 30.1064 -95.0833 90° East 238 274 6,900  Level FlightAware ADS-B
08:15AM 30.1063 -95.0426 90° East 238 274 6,900  Level FlightAware ADS-B
08:15AM 30.1062 -94.9812 90° East 239 275 6,900  Level FlightAware ADS-B
08:16AM 30.1058 -94.9439 93° East 239 275 6,900  Level FlightAware ADS-B
08:16AM 30.1040 -94.9317 102° East 238 274 6,900  Level FlightAware ADS-B
08:16AM 30.1031 -94.9276 104° East 238 274 6,900  Level FlightAware ADS-B
08:16AM 30.0986 -94.9085 105° East 238 274 6,900  Level FlightAware ADS-B
08:17AM 30.0941 -94.8895 105° East 238 274 6,900  Level FlightAware ADS-B
08:17AM 30.0878 -94.8673 117° Southeast 238 274 6,900  Level FlightAware ADS-B
08:17AM 30.0831 -94.8597 130° Southeast 237 273 6,900  Level FlightAware ADS-B
08:17AM 30.0738 -94.8524 153° Southeast 236 272 6,900  Level FlightAware ADS-B
08:17AM 30.0664 -94.8499 167° South 236 272 6,900  Level FlightAware ADS-B
08:18AM 30.0531 -94.8501 187° South 236 272 6,900  Level FlightAware ADS-B
08:18AM 30.0493 -94.8511 193° South 235 270 6,900  Level FlightAware ADS-B
08:18AM 30.0439 -94.8531 198° South 235 270 6,900  Level FlightAware ADS-B
08:18AM 30.0358 -94.8569 202° Southwest 235 270 6,900  Level FlightAware ADS-B
08:18AM 30.0203 -94.8646 203° Southwest 232 267 6,900  Level FlightAware ADS-B
08:18AM 30.0060 -94.8717 203° Southwest 218 251 6,900  Level FlightAware ADS-B
08:19AM 30.0019 -94.8741 207° Southwest 216 249 6,900  Level FlightAware ADS-B
08:19AM 29.9993 -94.8762 215° Southwest 216 249 6,900  Level FlightAware ADS-B
08:19AM 29.9962 -94.8800 227° Southwest 215 247 6,900  Level FlightAware ADS-B
08:19AM 29.9942 -94.8837 238° Southwest 215 247 6,900  Level FlightAware ADS-B
08:19AM 29.9922 -94.8927 260° West 216 249 6,900  Level FlightAware ADS-B
08:19AM 29.9926 -94.9060 273° West 216 249 6,900 -720 Level FlightAware ADS-B
08:19AM 29.9929 -94.9330 270° West 217 250 6,500 -1,260 Descending FlightAware ADS-B
08:20AM 29.9930 -94.9618 271° West 216 249 5,900 -1,380 Descending FlightAware ADS-B
08:20AM 29.9930 -94.9792 270° West 215 247 5,600 -1,200 Descending FlightAware ADS-B
08:20AM 29.9931 -94.9978 270° West 214 246 5,300 -1,200 Descending FlightAware ADS-B
08:21AM 29.9932 -95.0316 270° West 208 239 4,700 -1,140 Descending FlightAware ADS-B
08:21AM 29.9933 -95.0653 270° West 204 235 4,200 -1,080 Descending FlightAware ADS-B
08:22AM 29.9933 -95.0994 270° West 205 236 3,600 -1,140 Descending FlightAware ADS-B
08:22AM 29.9933 -95.1247 270° West 203 234 3,200 -1,080 Descending FlightAware ADS-B
08:22AM 29.9934 -95.1373 271° West 202 232 3,000 -1,140 Descending FlightAware ADS-B
08:23AM 29.9934 -95.1536 270° West 198 228 2,700 -900 Descending FlightAware ADS-B
08:23AM 29.9934 -95.1663 270° West 190 219 2,600 -1,080 Descending FlightAware ADS-B
08:23AM 29.9934 -95.1829 270° West 190 219 2,200 -1,140 Descending FlightAware ADS-B
08:23AM 29.9935 -95.1993 270° West 183 211 2,000 -780 Descending FlightAware ADS-B
08:24AM 29.9934 -95.2143 270° West 182 209 1,800 -780 Descending FlightAware ADS-B
08:24AM 29.9935 -95.2289 270° West 173 199 1,600 -1,020 Descending FlightAware ADS-B
08:24AM 29.9934 -95.2424 270° West 162 186 1,300 -1,020 Descending FlightAware ADS-B
08:25AM 29.9934 -95.2553 270° West 148 170 1,100 -780 Descending FlightAware ADS-B
08:25AM 29.9934 -95.2664 270° West 133 153 900 -720 Descending FlightAware ADS-B
08:25AM 29.9934 -95.2740 270° West 130 150 800 -720 Descending FlightAware ADS-B
08:25AM 29.9934 -95.2853 270° West 127 146 600 -600 Descending FlightAware ADS-B
08:25AM 29.9934 -95.2957 270° West 128 147 500 -600 Descending FlightAware ADS-B
08:26AM 29.9934 -95.3066 270° West 128 147 300 -780 Descending FlightAware ADS-B
08:26AM 29.9934 -95.3173 270° West 130 150 100 -840 Descending FlightAware ADS-B